Santa Barbara, California
Current Conditions -  °F | °C
As of 4:53 PM on Tuesday 21 Oct 2014 (Local Time) from KSBA Reporting Station
Clear Clear  
Wind Chill: 73°   Ceiling: Unl
Heat Index: 73°   Visibility: 10mi
Dew Point: 60°   Wind: 10mph
Humidity: 64%   Direction: 130°SE
Pressure: 29.81"   Gusts: NA
Location:  34.42°N, 119.69°W
Report Text: KSBA 212353Z 13009KT 10SM CLR 23/16 A2981 RMK AO2 SLP093 T02280156 10250 20222 56014
Loading
Personal Weather Stations






























Interactive Weather Map
Tropical Storm Tracking
New forecast layout! Learn more

10-Day Weather Forecast

Advertisements
Track Severe Weather on mobile